sensor_id;sensor_type;location;lat;lon;timestamp;P1;durP1;ratioP1;P2;durP2;ratioP2
17259;SDS011;8746;49.230;9.220;2023-12-20T00:00:39;8.67;;;6.90;;
17259;SDS011;8746;49.230;9.220;2023-12-20T00:03:04;10.47;;;7.87;;
17259;SDS011;8746;49.230;9.220;2023-12-20T00:05:30;7.47;;;6.67;;
17259;SDS011;8746;49.230;9.220;2023-12-20T00:07:57;7.53;;;6.70;;
17259;SDS011;8746;49.230;9.220;2023-12-20T00:10:22;7.83;;;6.43;;
17259;SDS011;8746;49.230;9.220;2023-12-20T00:12:48;8.40;;;6.83;;
17259;SDS011;8746;49.230;9.220;2023-12-20T00:15:13;8.00;;;6.73;;
17259;SDS011;8746;49.230;9.220;2023-12-20T00:17:38;8.00;;;6.03;;
17259;SDS011;8746;49.230;9.220;2023-12-20T00:20:04;7.60;;;6.00;;
17259;SDS011;8746;49.230;9.220;2023-12-20T00:22:31;7.80;;;6.17;;
17259;SDS011;8746;49.230;9.220;2023-12-20T00:24:56;8.13;;;6.77;;
17259;SDS011;8746;49.230;9.220;2023-12-20T00:27:21;9.40;;;6.83;;
17259;SDS011;8746;49.230;9.220;2023-12-20T00:29:47;11.63;;;6.80;;
17259;SDS011;8746;49.230;9.220;2023-12-20T00:32:15;11.30;;;6.60;;
17259;SDS011;8746;49.230;9.220;2023-12-20T00:34:41;8.53;;;6.43;;
17259;SDS011;8746;49.230;9.220;2023-12-20T00:37:06;9.90;;;6.67;;
17259;SDS011;8746;49.230;9.220;2023-12-20T00:39:31;8.60;;;6.80;;
17259;SDS011;8746;49.230;9.220;2023-12-20T00:41:58;7.83;;;7.03;;
17259;SDS011;8746;49.230;9.220;2023-12-20T00:44:23;8.83;;;7.07;;
17259;SDS011;8746;49.230;9.220;2023-12-20T00:46:48;8.60;;;6.80;;
17259;SDS011;8746;49.230;9.220;2023-12-20T00:49:14;9.07;;;7.10;;
17259;SDS011;8746;49.230;9.220;2023-12-20T00:51:39;11.07;;;7.53;;
17259;SDS011;8746;49.230;9.220;2023-12-20T00:54:05;9.13;;;6.93;;
17259;SDS011;8746;49.230;9.220;2023-12-20T00:56:30;9.60;;;7.43;;
17259;SDS011;8746;49.230;9.220;2023-12-20T00:58:55;10.07;;;7.70;;
17259;SDS011;8746;49.230;9.220;2023-12-20T01:01:21;9.77;;;7.97;;
17259;SDS011;8746;49.230;9.220;2023-12-20T01:03:46;11.47;;;8.37;;
17259;SDS011;8746;49.230;9.220;2023-12-20T01:06:12;10.60;;;8.00;;
17259;SDS011;8746;49.230;9.220;2023-12-20T01:08:37;10.80;;;7.67;;
17259;SDS011;8746;49.230;9.220;2023-12-20T01:11:04;9.97;;;7.80;;
17259;SDS011;8746;49.230;9.220;2023-12-20T01:13:30;11.97;;;8.37;;
17259;SDS011;8746;49.230;9.220;2023-12-20T01:15:56;10.40;;;7.97;;
17259;SDS011;8746;49.230;9.220;2023-12-20T01:18:21;12.17;;;8.37;;
17259;SDS011;8746;49.230;9.220;2023-12-20T01:20:46;11.50;;;8.20;;
17259;SDS011;8746;49.230;9.220;2023-12-20T01:23:12;9.77;;;7.20;;
17259;SDS011;8746;49.230;9.220;2023-12-20T01:25:37;10.90;;;7.57;;
17259;SDS011;8746;49.230;9.220;2023-12-20T01:28:03;9.43;;;7.43;;
17259;SDS011;8746;49.230;9.220;2023-12-20T01:30:28;9.43;;;7.40;;
17259;SDS011;8746;49.230;9.220;2023-12-20T01:32:53;9.17;;;7.73;;
17259;SDS011;8746;49.230;9.220;2023-12-20T01:35:19;9.13;;;7.60;;
17259;SDS011;8746;49.230;9.220;2023-12-20T01:37:44;8.27;;;6.97;;
17259;SDS011;8746;49.230;9.220;2023-12-20T01:40:10;8.20;;;6.87;;
17259;SDS011;8746;49.230;9.220;2023-12-20T01:42:35;7.50;;;6.63;;
17259;SDS011;8746;49.230;9.220;2023-12-20T01:45:01;9.03;;;6.50;;
17259;SDS011;8746;49.230;9.220;2023-12-20T01:47:27;7.63;;;6.43;;
17259;SDS011;8746;49.230;9.220;2023-12-20T01:49:53;9.47;;;6.67;;
17259;SDS011;8746;49.230;9.220;2023-12-20T01:52:19;8.53;;;6.73;;
17259;SDS011;8746;49.230;9.220;2023-12-20T01:54:45;7.20;;;6.00;;
17259;SDS011;8746;49.230;9.220;2023-12-20T01:57:10;7.53;;;6.37;;
17259;SDS011;8746;49.230;9.220;2023-12-20T01:59:36;6.53;;;5.83;;
17259;SDS011;8746;49.230;9.220;2023-12-20T02:02:04;7.20;;;5.37;;
17259;SDS011;8746;49.230;9.220;2023-12-20T02:04:30;6.00;;;5.40;;
17259;SDS011;8746;49.230;9.220;2023-12-20T02:06:56;5.83;;;4.87;;
17259;SDS011;8746;49.230;9.220;2023-12-20T02:09:22;7.47;;;4.97;;
17259;SDS011;8746;49.230;9.220;2023-12-20T02:11:47;5.67;;;4.57;;
17259;SDS011;8746;49.230;9.220;2023-12-20T02:14:13;5.07;;;4.57;;
17259;SDS011;8746;49.230;9.220;2023-12-20T02:16:38;4.43;;;4.03;;
17259;SDS011;8746;49.230;9.220;2023-12-20T02:19:04;4.30;;;3.90;;
17259;SDS011;8746;49.230;9.220;2023-12-20T02:21:38;4.50;;;4.10;;
17259;SDS011;8746;49.230;9.220;2023-12-20T02:24:03;5.10;;;3.60;;
17259;SDS011;8746;49.230;9.220;2023-12-20T02:26:28;3.93;;;3.63;;
17259;SDS011;8746;49.230;9.220;2023-12-20T02:28:54;3.70;;;3.40;;
17259;SDS011;8746;49.230;9.220;2023-12-20T02:31:21;3.60;;;3.23;;
17259;SDS011;8746;49.230;9.220;2023-12-20T02:33:47;3.67;;;3.30;;
17259;SDS011;8746;49.230;9.220;2023-12-20T02:36:12;3.63;;;3.00;;
17259;SDS011;8746;49.230;9.220;2023-12-20T02:38:38;4.20;;;3.63;;
17259;SDS011;8746;49.230;9.220;2023-12-20T02:41:03;4.33;;;3.10;;
17259;SDS011;8746;49.230;9.220;2023-12-20T02:43:28;3.20;;;2.87;;
17259;SDS011;8746;49.230;9.220;2023-12-20T02:45:53;3.23;;;3.00;;
17259;SDS011;8746;49.230;9.220;2023-12-20T02:48:19;3.40;;;3.10;;
17259;SDS011;8746;49.230;9.220;2023-12-20T02:50:45;3.60;;;3.30;;
17259;SDS011;8746;49.230;9.220;2023-12-20T02:53:12;4.73;;;3.13;;
17259;SDS011;8746;49.230;9.220;2023-12-20T02:55:37;3.50;;;3.20;;
17259;SDS011;8746;49.230;9.220;2023-12-20T02:58:03;3.40;;;3.10;;
17259;SDS011;8746;49.230;9.220;2023-12-20T03:00:28;3.47;;;3.17;;
17259;SDS011;8746;49.230;9.220;2023-12-20T03:02:53;3.73;;;3.40;;
17259;SDS011;8746;49.230;9.220;2023-12-20T03:05:19;3.77;;;3.37;;
17259;SDS011;8746;49.230;9.220;2023-12-20T03:07:45;4.33;;;3.63;;
17259;SDS011;8746;49.230;9.220;2023-12-20T03:10:10;3.83;;;3.43;;
17259;SDS011;8746;49.230;9.220;2023-12-20T03:12:36;4.00;;;3.60;;
17259;SDS011;8746;49.230;9.220;2023-12-20T03:15:01;4.27;;;3.87;;
17259;SDS011;8746;49.230;9.220;2023-12-20T03:17:27;3.40;;;3.10;;
17259;SDS011;8746;49.230;9.220;2023-12-20T03:19:52;5.33;;;4.10;;
17259;SDS011;8746;49.230;9.220;2023-12-20T03:22:17;4.17;;;3.77;;
17259;SDS011;8746;49.230;9.220;2023-12-20T03:24:43;3.90;;;3.53;;
17259;SDS011;8746;49.230;9.220;2023-12-20T03:27:08;4.97;;;3.93;;
17259;SDS011;8746;49.230;9.220;2023-12-20T03:29:33;4.10;;;3.70;;
17259;SDS011;8746;49.230;9.220;2023-12-20T03:31:59;5.60;;;3.63;;
17259;SDS011;8746;49.230;9.220;2023-12-20T03:34:24;4.20;;;3.67;;
17259;SDS011;8746;49.230;9.220;2023-12-20T03:36:49;4.67;;;4.20;;
17259;SDS011;8746;49.230;9.220;2023-12-20T03:39:15;4.90;;;4.10;;
17259;SDS011;8746;49.230;9.220;2023-12-20T03:41:40;8.37;;;4.33;;
17259;SDS011;8746;49.230;9.220;2023-12-20T03:44:05;10.77;;;3.67;;
17259;SDS011;8746;49.230;9.220;2023-12-20T03:46:30;4.00;;;3.20;;
17259;SDS011;8746;49.230;9.220;2023-12-20T03:48:56;3.60;;;3.30;;
17259;SDS011;8746;49.230;9.220;2023-12-20T03:51:22;3.83;;;3.33;;
17259;SDS011;8746;49.230;9.220;2023-12-20T03:53:47;3.60;;;3.30;;
17259;SDS011;8746;49.230;9.220;2023-12-20T03:56:13;4.10;;;3.70;;
17259;SDS011;8746;49.230;9.220;2023-12-20T03:58:38;4.03;;;3.60;;
17259;SDS011;8746;49.230;9.220;2023-12-20T04:01:03;4.00;;;3.60;;
17259;SDS011;8746;49.230;9.220;2023-12-20T04:03:35;2.93;;;2.73;;
17259;SDS011;8746;49.230;9.220;2023-12-20T04:06:00;3.87;;;3.47;;
17259;SDS011;8746;49.230;9.220;2023-12-20T04:08:25;3.67;;;3.37;;
17259;SDS011;8746;49.230;9.220;2023-12-20T04:10:51;4.13;;;3.33;;
17259;SDS011;8746;49.230;9.220;2023-12-20T04:13:16;3.90;;;3.57;;
17259;SDS011;8746;49.230;9.220;2023-12-20T04:15:41;4.03;;;3.63;;
17259;SDS011;8746;49.230;9.220;2023-12-20T04:18:07;4.60;;;4.20;;
17259;SDS011;8746;49.230;9.220;2023-12-20T04:20:32;4.87;;;4.43;;
17259;SDS011;8746;49.230;9.220;2023-12-20T04:22:57;5.00;;;4.50;;
17259;SDS011;8746;49.230;9.220;2023-12-20T04:25:23;5.20;;;4.70;;
17259;SDS011;8746;49.230;9.220;2023-12-20T04:27:48;5.40;;;4.90;;
17259;SDS011;8746;49.230;9.220;2023-12-20T04:30:13;5.47;;;4.97;;
17259;SDS011;8746;49.230;9.220;2023-12-20T04:32:39;5.53;;;4.30;;
17259;SDS011;8746;49.230;9.220;2023-12-20T04:35:04;4.83;;;4.33;;
17259;SDS011;8746;49.230;9.220;2023-12-20T04:37:29;5.77;;;5.03;;
17259;SDS011;8746;49.230;9.220;2023-12-20T04:39:55;5.80;;;4.43;;
17259;SDS011;8746;49.230;9.220;2023-12-20T04:42:20;5.67;;;4.67;;
17259;SDS011;8746;49.230;9.220;2023-12-20T04:44:45;4.80;;;4.40;;
17259;SDS011;8746;49.230;9.220;2023-12-20T04:47:11;4.77;;;4.33;;
17259;SDS011;8746;49.230;9.220;2023-12-20T04:49:36;5.63;;;4.73;;
17259;SDS011;8746;49.230;9.220;2023-12-20T04:52:01;4.67;;;4.27;;
17259;SDS011;8746;49.230;9.220;2023-12-20T04:54:27;5.20;;;4.47;;
17259;SDS011;8746;49.230;9.220;2023-12-20T04:56:52;5.53;;;4.60;;
17259;SDS011;8746;49.230;9.220;2023-12-20T04:59:18;5.07;;;4.57;;
17259;SDS011;8746;49.230;9.220;2023-12-20T05:01:43;5.30;;;4.80;;
17259;SDS011;8746;49.230;9.220;2023-12-20T05:04:09;4.90;;;4.40;;
17259;SDS011;8746;49.230;9.220;2023-12-20T05:06:34;4.70;;;4.27;;
17259;SDS011;8746;49.230;9.220;2023-12-20T05:08:59;5.80;;;4.70;;
17259;SDS011;8746;49.230;9.220;2023-12-20T05:11:24;5.27;;;4.77;;
17259;SDS011;8746;49.230;9.220;2023-12-20T05:13:50;5.70;;;4.80;;
17259;SDS011;8746;49.230;9.220;2023-12-20T05:16:15;5.40;;;4.90;;
17259;SDS011;8746;49.230;9.220;2023-12-20T05:18:42;5.60;;;5.07;;
17259;SDS011;8746;49.230;9.220;2023-12-20T05:21:08;4.97;;;4.57;;
17259;SDS011;8746;49.230;9.220;2023-12-20T05:23:33;5.27;;;4.77;;
17259;SDS011;8746;49.230;9.220;2023-12-20T05:26:00;5.77;;;5.00;;
17259;SDS011;8746;49.230;9.220;2023-12-20T05:28:25;6.10;;;5.50;;
17259;SDS011;8746;49.230;9.220;2023-12-20T05:30:51;6.47;;;5.17;;
17259;SDS011;8746;49.230;9.220;2023-12-20T05:33:16;6.00;;;5.37;;
17259;SDS011;8746;49.230;9.220;2023-12-20T05:35:41;5.70;;;5.20;;
17259;SDS011;8746;49.230;9.220;2023-12-20T05:38:07;7.50;;;5.90;;
17259;SDS011;8746;49.230;9.220;2023-12-20T05:40:32;7.13;;;5.40;;
17259;SDS011;8746;49.230;9.220;2023-12-20T05:42:57;5.73;;;5.23;;
17259;SDS011;8746;49.230;9.220;2023-12-20T05:45:22;5.80;;;5.30;;
17259;SDS011;8746;49.230;9.220;2023-12-20T05:47:48;6.20;;;5.43;;
17259;SDS011;8746;49.230;9.220;2023-12-20T05:50:13;5.37;;;4.87;;
17259;SDS011;8746;49.230;9.220;2023-12-20T05:52:39;5.83;;;5.23;;
17259;SDS011;8746;49.230;9.220;2023-12-20T05:55:04;5.60;;;5.10;;
17259;SDS011;8746;49.230;9.220;2023-12-20T05:57:30;6.33;;;5.77;;
17259;SDS011;8746;49.230;9.220;2023-12-20T05:59:55;5.97;;;5.40;;
17259;SDS011;8746;49.230;9.220;2023-12-20T06:02:20;6.10;;;5.60;;
17259;SDS011;8746;49.230;9.220;2023-12-20T06:04:45;6.23;;;5.63;;
17259;SDS011;8746;49.230;9.220;2023-12-20T06:07:11;6.47;;;5.87;;
17259;SDS011;8746;49.230;9.220;2023-12-20T06:09:38;6.50;;;5.67;;
17259;SDS011;8746;49.230;9.220;2023-12-20T06:12:03;7.27;;;6.43;;
17259;SDS011;8746;49.230;9.220;2023-12-20T06:14:29;6.63;;;6.03;;
17259;SDS011;8746;49.230;9.220;2023-12-20T06:16:55;6.43;;;5.83;;
17259;SDS011;8746;49.230;9.220;2023-12-20T06:19:21;7.07;;;6.37;;
17259;SDS011;8746;49.230;9.220;2023-12-20T06:21:46;7.07;;;6.37;;
17259;SDS011;8746;49.230;9.220;2023-12-20T06:24:12;7.43;;;6.50;;
17259;SDS011;8746;49.230;9.220;2023-12-20T06:26:37;7.47;;;6.77;;
17259;SDS011;8746;49.230;9.220;2023-12-20T06:29:02;7.53;;;6.70;;
17259;SDS011;8746;49.230;9.220;2023-12-20T06:31:28;12.17;;;10.97;;
17259;SDS011;8746;49.230;9.220;2023-12-20T06:33:53;8.17;;;7.43;;
17259;SDS011;8746;49.230;9.220;2023-12-20T06:36:22;8.50;;;7.70;;
17259;SDS011;8746;49.230;9.220;2023-12-20T06:38:53;9.77;;;8.77;;
17259;SDS011;8746;49.230;9.220;2023-12-20T06:41:19;8.97;;;8.07;;
17259;SDS011;8746;49.230;9.220;2023-12-20T06:43:44;8.00;;;6.90;;
17259;SDS011;8746;49.230;9.220;2023-12-20T06:46:10;8.90;;;8.03;;
17259;SDS011;8746;49.230;9.220;2023-12-20T06:48:35;9.30;;;8.37;;
17259;SDS011;8746;49.230;9.220;2023-12-20T06:51:02;13.90;;;10.30;;
17259;SDS011;8746;49.230;9.220;2023-12-20T06:53:27;15.60;;;14.00;;
17259;SDS011;8746;49.230;9.220;2023-12-20T06:55:53;14.43;;;12.93;;
17259;SDS011;8746;49.230;9.220;2023-12-20T06:58:18;9.53;;;8.53;;
17259;SDS011;8746;49.230;9.220;2023-12-20T07:00:43;9.60;;;8.70;;
17259;SDS011;8746;49.230;9.220;2023-12-20T07:03:09;9.63;;;8.63;;
17259;SDS011;8746;49.230;9.220;2023-12-20T07:05:34;10.97;;;9.87;;
17259;SDS011;8746;49.230;9.220;2023-12-20T07:08:00;9.40;;;8.40;;
17259;SDS011;8746;49.230;9.220;2023-12-20T07:10:25;9.83;;;8.70;;
17259;SDS011;8746;49.230;9.220;2023-12-20T07:12:50;9.63;;;8.50;;
17259;SDS011;8746;49.230;9.220;2023-12-20T07:15:17;9.23;;;8.30;;
17259;SDS011;8746;49.230;9.220;2023-12-20T07:17:43;9.17;;;8.20;;
17259;SDS011;8746;49.230;9.220;2023-12-20T07:20:09;8.97;;;8.07;;
17259;SDS011;8746;49.230;9.220;2023-12-20T07:22:36;11.17;;;10.07;;
17259;SDS011;8746;49.230;9.220;2023-12-20T07:25:01;12.57;;;11.37;;
17259;SDS011;8746;49.230;9.220;2023-12-20T07:27:28;11.83;;;8.80;;
17259;SDS011;8746;49.230;9.220;2023-12-20T07:29:53;13.87;;;12.67;;
17259;SDS011;8746;49.230;9.220;2023-12-20T07:32:19;8.47;;;7.63;;
17259;SDS011;8746;49.230;9.220;2023-12-20T07:34:45;7.77;;;6.70;;
17259;SDS011;8746;49.230;9.220;2023-12-20T07:37:10;7.20;;;5.87;;
17259;SDS011;8746;49.230;9.220;2023-12-20T07:39:37;7.30;;;6.10;;
17259;SDS011;8746;49.230;9.220;2023-12-20T07:42:02;9.33;;;6.30;;
17259;SDS011;8746;49.230;9.220;2023-12-20T07:44:28;7.20;;;5.63;;
17259;SDS011;8746;49.230;9.220;2023-12-20T07:46:53;6.07;;;5.47;;
17259;SDS011;8746;49.230;9.220;2023-12-20T07:49:19;7.70;;;5.70;;
17259;SDS011;8746;49.230;9.220;2023-12-20T07:51:44;8.37;;;7.50;;
17259;SDS011;8746;49.230;9.220;2023-12-20T07:54:10;7.03;;;6.23;;
17259;SDS011;8746;49.230;9.220;2023-12-20T07:56:35;5.97;;;5.40;;
17259;SDS011;8746;49.230;9.220;2023-12-20T07:59:01;6.13;;;5.20;;
17259;SDS011;8746;49.230;9.220;2023-12-20T08:01:26;5.50;;;5.00;;
17259;SDS011;8746;49.230;9.220;2023-12-20T08:03:51;5.77;;;5.27;;
17259;SDS011;8746;49.230;9.220;2023-12-20T08:06:17;5.13;;;4.63;;
17259;SDS011;8746;49.230;9.220;2023-12-20T08:08:42;6.73;;;5.10;;
17259;SDS011;8746;49.230;9.220;2023-12-20T08:11:08;5.70;;;4.17;;
17259;SDS011;8746;49.230;9.220;2023-12-20T08:13:33;6.30;;;5.07;;
17259;SDS011;8746;49.230;9.220;2023-12-20T08:15:59;6.23;;;5.00;;
17259;SDS011;8746;49.230;9.220;2023-12-20T08:18:24;6.97;;;5.60;;
17259;SDS011;8746;49.230;9.220;2023-12-20T08:20:49;7.53;;;4.80;;
17259;SDS011;8746;49.230;9.220;2023-12-20T08:23:18;5.77;;;5.17;;
17259;SDS011;8746;49.230;9.220;2023-12-20T08:25:44;6.10;;;5.30;;
17259;SDS011;8746;49.230;9.220;2023-12-20T08:28:09;6.90;;;6.20;;
17259;SDS011;8746;49.230;9.220;2023-12-20T08:30:34;8.20;;;6.83;;
17259;SDS011;8746;49.230;9.220;2023-12-20T08:33:00;8.93;;;6.67;;
17259;SDS011;8746;49.230;9.220;2023-12-20T08:35:26;11.10;;;7.63;;
17259;SDS011;8746;49.230;9.220;2023-12-20T08:37:51;9.87;;;7.13;;
17259;SDS011;8746;49.230;9.220;2023-12-20T08:40:16;8.43;;;7.20;;
17259;SDS011;8746;49.230;9.220;2023-12-20T08:42:42;8.23;;;7.03;;
17259;SDS011;8746;49.230;9.220;2023-12-20T08:45:07;6.40;;;5.80;;
17259;SDS011;8746;49.230;9.220;2023-12-20T08:47:33;6.60;;;5.93;;
17259;SDS011;8746;49.230;9.220;2023-12-20T08:49:58;6.17;;;5.57;;
17259;SDS011;8746;49.230;9.220;2023-12-20T08:52:25;6.37;;;5.70;;
17259;SDS011;8746;49.230;9.220;2023-12-20T08:54:52;5.73;;;5.13;;
17259;SDS011;8746;49.230;9.220;2023-12-20T08:57:21;5.40;;;4.90;;
17259;SDS011;8746;49.230;9.220;2023-12-20T08:59:48;5.30;;;4.67;;
17259;SDS011;8746;49.230;9.220;2023-12-20T09:02:14;5.70;;;5.20;;
17259;SDS011;8746;49.230;9.220;2023-12-20T09:04:41;6.20;;;4.90;;
17259;SDS011;8746;49.230;9.220;2023-12-20T09:07:06;4.97;;;4.50;;
17259;SDS011;8746;49.230;9.220;2023-12-20T09:09:32;4.30;;;3.73;;
17259;SDS011;8746;49.230;9.220;2023-12-20T09:11:58;5.37;;;4.23;;
17259;SDS011;8746;49.230;9.220;2023-12-20T09:14:23;4.50;;;3.93;;
17259;SDS011;8746;49.230;9.220;2023-12-20T09:16:49;4.10;;;3.70;;
17259;SDS011;8746;49.230;9.220;2023-12-20T09:19:16;4.10;;;3.80;;
17259;SDS011;8746;49.230;9.220;2023-12-20T09:21:42;3.93;;;3.63;;
17259;SDS011;8746;49.230;9.220;2023-12-20T09:24:07;4.37;;;3.30;;
17259;SDS011;8746;49.230;9.220;2023-12-20T09:26:33;3.77;;;3.33;;
17259;SDS011;8746;49.230;9.220;2023-12-20T09:28:59;3.60;;;3.30;;
17259;SDS011;8746;49.230;9.220;2023-12-20T09:31:24;4.20;;;3.40;;
17259;SDS011;8746;49.230;9.220;2023-12-20T09:33:50;3.43;;;3.13;;
17259;SDS011;8746;49.230;9.220;2023-12-20T09:36:15;3.93;;;3.63;;
17259;SDS011;8746;49.230;9.220;2023-12-20T09:38:40;6.33;;;3.50;;
17259;SDS011;8746;49.230;9.220;2023-12-20T09:41:07;3.37;;;3.07;;
17259;SDS011;8746;49.230;9.220;2023-12-20T09:43:32;6.50;;;3.10;;
17259;SDS011;8746;49.230;9.220;2023-12-20T09:46:02;4.23;;;2.77;;
17259;SDS011;8746;49.230;9.220;2023-12-20T09:48:30;4.73;;;2.80;;
17259;SDS011;8746;49.230;9.220;2023-12-20T09:50:56;3.00;;;2.70;;
17259;SDS011;8746;49.230;9.220;2023-12-20T09:53:21;3.53;;;2.60;;
17259;SDS011;8746;49.230;9.220;2023-12-20T09:55:54;4.30;;;2.50;;
17259;SDS011;8746;49.230;9.220;2023-12-20T09:58:20;4.40;;;2.37;;
17259;SDS011;8746;49.230;9.220;2023-12-20T10:00:46;4.63;;;2.57;;
17259;SDS011;8746;49.230;9.220;2023-12-20T10:03:11;2.20;;;1.87;;
17259;SDS011;8746;49.230;9.220;2023-12-20T10:05:39;2.17;;;1.80;;
17259;SDS011;8746;49.230;9.220;2023-12-20T10:08:08;2.83;;;2.23;;
17259;SDS011;8746;49.230;9.220;2023-12-20T10:10:33;4.03;;;2.10;;
17259;SDS011;8746;49.230;9.220;2023-12-20T10:13:09;5.60;;;2.37;;
17259;SDS011;8746;49.230;9.220;2023-12-20T10:15:35;2.93;;;2.07;;
17259;SDS011;8746;49.230;9.220;2023-12-20T10:18:02;2.27;;;2.00;;
17259;SDS011;8746;49.230;9.220;2023-12-20T10:20:29;3.87;;;2.00;;
17259;SDS011;8746;49.230;9.220;2023-12-20T10:22:58;3.80;;;1.90;;
17259;SDS011;8746;49.230;9.220;2023-12-20T10:25:24;4.90;;;1.97;;
17259;SDS011;8746;49.230;9.220;2023-12-20T10:27:50;5.63;;;2.00;;
17259;SDS011;8746;49.230;9.220;2023-12-20T10:30:33;3.07;;;1.80;;
17259;SDS011;8746;49.230;9.220;2023-12-20T10:32:58;3.77;;;1.90;;
17259;SDS011;8746;49.230;9.220;2023-12-20T10:35:24;3.33;;;2.50;;
17259;SDS011;8746;49.230;9.220;2023-12-20T10:37:49;4.73;;;2.37;;
17259;SDS011;8746;49.230;9.220;2023-12-20T10:40:18;4.23;;;2.37;;
17259;SDS011;8746;49.230;9.220;2023-12-20T10:42:44;2.93;;;1.93;;
17259;SDS011;8746;49.230;9.220;2023-12-20T10:45:09;2.83;;;1.90;;
17259;SDS011;8746;49.230;9.220;2023-12-20T10:47:35;2.70;;;2.00;;
17259;SDS011;8746;49.230;9.220;2023-12-20T10:50:02;3.63;;;2.07;;
17259;SDS011;8746;49.230;9.220;2023-12-20T10:52:30;3.77;;;1.90;;
17259;SDS011;8746;49.230;9.220;2023-12-20T10:54:57;3.13;;;2.17;;
17259;SDS011;8746;49.230;9.220;2023-12-20T10:57:22;3.87;;;1.83;;
17259;SDS011;8746;49.230;9.220;2023-12-20T10:59:53;4.80;;;1.77;;
17259;SDS011;8746;49.230;9.220;2023-12-20T11:02:19;3.37;;;1.63;;
17259;SDS011;8746;49.230;9.220;2023-12-20T11:05:05;6.23;;;2.17;;
17259;SDS011;8746;49.230;9.220;2023-12-20T11:07:49;4.47;;;1.70;;
17259;SDS011;8746;49.230;9.220;2023-12-20T11:10:23;3.10;;;1.70;;
17259;SDS011;8746;49.230;9.220;2023-12-20T11:12:58;5.43;;;2.00;;
17259;SDS011;8746;49.230;9.220;2023-12-20T11:15:41;3.47;;;1.80;;
17259;SDS011;8746;49.230;9.220;2023-12-20T11:18:08;4.60;;;1.73;;
17259;SDS011;8746;49.230;9.220;2023-12-20T11:20:38;5.43;;;2.37;;
17259;SDS011;8746;49.230;9.220;2023-12-20T11:23:05;4.53;;;1.93;;
17259;SDS011;8746;49.230;9.220;2023-12-20T11:25:34;3.73;;;2.00;;
17259;SDS011;8746;49.230;9.220;2023-12-20T11:28:12;4.87;;;2.00;;
17259;SDS011;8746;49.230;9.220;2023-12-20T11:30:41;3.37;;;1.87;;
17259;SDS011;8746;49.230;9.220;2023-12-20T11:33:08;6.50;;;2.10;;
17259;SDS011;8746;49.230;9.220;2023-12-20T11:35:33;8.13;;;2.07;;
17259;SDS011;8746;49.230;9.220;2023-12-20T11:38:00;5.20;;;1.87;;
17259;SDS011;8746;49.230;9.220;2023-12-20T11:40:25;5.07;;;2.30;;
17259;SDS011;8746;49.230;9.220;2023-12-20T11:42:51;6.57;;;1.97;;
17259;SDS011;8746;49.230;9.220;2023-12-20T11:45:22;3.07;;;1.83;;
17259;SDS011;8746;49.230;9.220;2023-12-20T11:47:50;3.67;;;2.00;;
17259;SDS011;8746;49.230;9.220;2023-12-20T11:50:18;5.83;;;2.57;;
17259;SDS011;8746;49.230;9.220;2023-12-20T11:52:44;3.27;;;2.50;;
17259;SDS011;8746;49.230;9.220;2023-12-20T11:55:09;3.17;;;2.13;;
17259;SDS011;8746;49.230;9.220;2023-12-20T11:57:35;4.60;;;2.50;;
17259;SDS011;8746;49.230;9.220;2023-12-20T12:00:01;4.03;;;2.27;;
17259;SDS011;8746;49.230;9.220;2023-12-20T12:02:27;2.97;;;2.30;;
17259;SDS011;8746;49.230;9.220;2023-12-20T12:04:52;6.47;;;2.47;;
17259;SDS011;8746;49.230;9.220;2023-12-20T12:07:18;4.10;;;2.10;;
17259;SDS011;8746;49.230;9.220;2023-12-20T12:09:43;7.90;;;2.43;;
17259;SDS011;8746;49.230;9.220;2023-12-20T12:12:09;6.37;;;2.20;;
17259;SDS011;8746;49.230;9.220;2023-12-20T12:14:35;4.93;;;2.47;;
17259;SDS011;8746;49.230;9.220;2023-12-20T12:17:02;5.13;;;2.30;;
17259;SDS011;8746;49.230;9.220;2023-12-20T12:19:28;4.17;;;2.60;;
17259;SDS011;8746;49.230;9.220;2023-12-20T12:22:07;5.27;;;2.50;;
17259;SDS011;8746;49.230;9.220;2023-12-20T12:24:36;5.70;;;2.30;;
17259;SDS011;8746;49.230;9.220;2023-12-20T12:27:02;5.03;;;2.93;;
17259;SDS011;8746;49.230;9.220;2023-12-20T12:29:28;4.97;;;2.57;;
17259;SDS011;8746;49.230;9.220;2023-12-20T12:31:54;5.50;;;2.70;;
17259;SDS011;8746;49.230;9.220;2023-12-20T12:34:19;3.60;;;2.23;;
17259;SDS011;8746;49.230;9.220;2023-12-20T12:36:45;9.27;;;3.87;;
17259;SDS011;8746;49.230;9.220;2023-12-20T12:39:14;6.47;;;3.00;;
17259;SDS011;8746;49.230;9.220;2023-12-20T12:41:40;6.80;;;2.97;;
17259;SDS011;8746;49.230;9.220;2023-12-20T12:44:06;6.97;;;2.60;;
17259;SDS011;8746;49.230;9.220;2023-12-20T12:46:31;7.17;;;2.90;;
17259;SDS011;8746;49.230;9.220;2023-12-20T12:48:58;3.70;;;2.33;;
17259;SDS011;8746;49.230;9.220;2023-12-20T12:51:23;4.67;;;2.50;;
17259;SDS011;8746;49.230;9.220;2023-12-20T12:53:48;6.33;;;2.30;;
17259;SDS011;8746;49.230;9.220;2023-12-20T12:56:14;5.40;;;2.80;;
17259;SDS011;8746;49.230;9.220;2023-12-20T12:58:40;5.53;;;2.90;;
17259;SDS011;8746;49.230;9.220;2023-12-20T13:01:06;8.53;;;2.73;;
17259;SDS011;8746;49.230;9.220;2023-12-20T13:03:31;3.67;;;2.50;;
17259;SDS011;8746;49.230;9.220;2023-12-20T13:05:56;5.47;;;2.40;;
17259;SDS011;8746;49.230;9.220;2023-12-20T13:08:22;3.87;;;2.53;;
17259;SDS011;8746;49.230;9.220;2023-12-20T13:10:47;6.30;;;2.67;;
17259;SDS011;8746;49.230;9.220;2023-12-20T13:13:13;4.63;;;2.63;;
17259;SDS011;8746;49.230;9.220;2023-12-20T13:15:38;5.53;;;2.37;;
17259;SDS011;8746;49.230;9.220;2023-12-20T13:18:03;6.13;;;2.30;;
17259;SDS011;8746;49.230;9.220;2023-12-20T13:20:31;4.67;;;2.50;;
17259;SDS011;8746;49.230;9.220;2023-12-20T13:22:56;6.80;;;4.00;;
17259;SDS011;8746;49.230;9.220;2023-12-20T13:25:22;6.37;;;3.13;;
17259;SDS011;8746;49.230;9.220;2023-12-20T13:27:47;7.23;;;3.37;;
17259;SDS011;8746;49.230;9.220;2023-12-20T13:30:12;6.27;;;3.30;;
17259;SDS011;8746;49.230;9.220;2023-12-20T13:32:38;9.27;;;4.10;;
17259;SDS011;8746;49.230;9.220;2023-12-20T13:35:04;7.23;;;2.63;;
17259;SDS011;8746;49.230;9.220;2023-12-20T13:37:29;6.47;;;2.60;;
17259;SDS011;8746;49.230;9.220;2023-12-20T13:39:55;7.10;;;2.67;;
17259;SDS011;8746;49.230;9.220;2023-12-20T13:42:20;7.97;;;4.47;;
17259;SDS011;8746;49.230;9.220;2023-12-20T13:44:46;5.83;;;3.10;;
17259;SDS011;8746;49.230;9.220;2023-12-20T13:47:11;4.73;;;2.90;;
17259;SDS011;8746;49.230;9.220;2023-12-20T13:49:37;4.53;;;2.57;;
17259;SDS011;8746;49.230;9.220;2023-12-20T13:52:02;8.73;;;3.03;;
17259;SDS011;8746;49.230;9.220;2023-12-20T13:54:29;6.30;;;3.03;;
17259;SDS011;8746;49.230;9.220;2023-12-20T13:56:54;8.30;;;3.30;;
17259;SDS011;8746;49.230;9.220;2023-12-20T13:59:20;9.67;;;4.07;;
17259;SDS011;8746;49.230;9.220;2023-12-20T14:01:45;8.43;;;4.30;;
17259;SDS011;8746;49.230;9.220;2023-12-20T14:04:10;7.07;;;3.60;;
17259;SDS011;8746;49.230;9.220;2023-12-20T14:06:36;6.17;;;3.70;;
17259;SDS011;8746;49.230;9.220;2023-12-20T14:09:02;6.50;;;4.40;;
17259;SDS011;8746;49.230;9.220;2023-12-20T14:11:28;10.20;;;3.80;;
17259;SDS011;8746;49.230;9.220;2023-12-20T14:13:54;8.50;;;3.40;;
17259;SDS011;8746;49.230;9.220;2023-12-20T14:16:23;5.90;;;3.13;;
17259;SDS011;8746;49.230;9.220;2023-12-20T14:18:49;7.00;;;3.00;;
17259;SDS011;8746;49.230;9.220;2023-12-20T14:21:15;7.93;;;3.07;;
17259;SDS011;8746;49.230;9.220;2023-12-20T14:23:40;7.23;;;3.00;;
17259;SDS011;8746;49.230;9.220;2023-12-20T14:26:06;6.33;;;3.57;;
17259;SDS011;8746;49.230;9.220;2023-12-20T14:28:31;5.03;;;2.80;;
17259;SDS011;8746;49.230;9.220;2023-12-20T14:30:56;5.23;;;2.53;;
17259;SDS011;8746;49.230;9.220;2023-12-20T14:33:22;4.03;;;2.57;;
17259;SDS011;8746;49.230;9.220;2023-12-20T14:35:47;6.30;;;3.60;;
17259;SDS011;8746;49.230;9.220;2023-12-20T14:38:12;6.77;;;3.20;;
17259;SDS011;8746;49.230;9.220;2023-12-20T14:40:40;7.13;;;2.57;;
17259;SDS011;8746;49.230;9.220;2023-12-20T14:43:05;10.13;;;2.83;;
17259;SDS011;8746;49.230;9.220;2023-12-20T14:45:31;4.20;;;2.67;;
17259;SDS011;8746;49.230;9.220;2023-12-20T14:47:56;6.70;;;2.90;;
17259;SDS011;8746;49.230;9.220;2023-12-20T14:50:22;6.63;;;2.83;;
17259;SDS011;8746;49.230;9.220;2023-12-20T14:52:47;5.20;;;3.17;;